AirNav   Everest Fuels
 
 489 users online  

81PN Armstrong County Memorial Hospital Heliport
Kittanning, Pennsylvania, USA

GOING TO KITTANNING?


FAA INFORMATION EFFECTIVE 15 JULY 2021

Location

FAA Identifier: 81PN
Lat/Long: 40-48-29.5660N 079-33-48.5725W
40-48.492767N 079-33.809542W
40.8082128,-79.5634924
(estimated)
Elevation: 1141.9 ft. / 348.1 m (surveyed)
Variation: 10W (2020)
From city: 2 miles W of KITTANNING, PA
Time zone: UTC -4 (UTC -5 during Standard Time)
Zip code: 16201

Heliport Operations

Heliport use: Private use, MEDICAL USE.
Activation date: 02/1982
Control tower: no
ARTCC: CLEVELAND CENTER
FSS: ALTOONA FLIGHT SERVICE STATION
NOTAMs facility: FDC (NOTAM-D service not available)
Attendance: UNATNDD
Wind indicator: yes
Segmented circle: no

Heliport Communications

WX AWOS-3PT at BTP (18 nm W): 121.450 (724-586-6434)
  • APCH/DEP SVC PRVDD BY CLEVELAND ARTCC (ZOB) 126.725/291.65 (DUBOISRCAG).

Nearby radio navigation aids

VOR radial/distance  VOR name  Freq  Var
EWCr100/29.4ELLWOOD CITY VOR/DME115.8008W
AGCr043/38.5ALLEGHENY VOR/DME110.0009W

Heliport Services

Runway Information

Helipad H1

Dimensions: 44 x 44 ft. / 13 x 13 m
Surface: asphalt, in fair condition
Latitude: 40-48.492767N
Longitude: 079-33.811208W
Elevation: 1141.9 ft.
Traffic pattern: leftleft
Markings: none, in fair condition

Heliport Ownership and Management from official FAA records

Ownership: Privately-owned
Owner: ARMSTRONG COUNTY MEML HOSP
ONE NOLTE DRIVE
KITTANNING, PA 16201
Phone (724) 543-8500
Manager: GUY EDWARDS
ONE NOLTE DRIVE
KITTANNING, PA 16201
Phone (724) 543-8500

Heliport Operational Statistics

Aircraft based on the field: 1
Helicopters: 1
    

Additional Remarks

FOR CD CTC CLEVELAND ARTCC AT 440-774-0234.

Instrument Procedures

There are no published instrument procedures at 81PN.

Some nearby airports with instrument procedures:

6P7 - McVille Airport (5 nm S)
KBTP - Pittsburgh/Butler Regional Airport (18 nm W)
KIDI - Indiana County Airport (Jimmy Stewart Field) (24 nm SE)
KAXQ - Clarion County Airport (26 nm N)
KPJC - Zelienople Municipal Airport (27 nm W)
 
Loc | Ops | Rwys | IFR | FBO | Links
Com | Nav | Svcs | Stats | Notes
Area around 81PN (Armstrong County Memorial Hospital Heliport)
 
Road maps at: MapQuest Bing Google
 
Aerial photo
No photo
 
Sectional chart

 
Airport distance calculator
Flying to Armstrong County Memorial Hospital Heliport? Find the distance to fly.

From to 81PN

Sunrise and sunset
Times for 31-Jul-2021
 Local
(UTC-4)
 Zulu
(UTC)
Morning civil twilight05:4409:44
Sunrise06:1510:15
Sunset20:3500:35
Evening civil twilight21:0501:05

Current date and time
Zulu (UTC)  31-Jul-2021 06:30:43
Local (UTC-4)  31-Jul-2021 02:30:43
 
METAR
KBTP 
18nm W 
310556Z AUTO 00000KT 10SM CLR 12/11 A3008 RMK AO2 SLP186 T01220111 10200 20117 50003
KIDI 
25nm SE 
310615Z AUTO 00000KT 10SM CLR 13/12 A3010 RMK A01
KPJC 
27nm W 
310035Z AUTO 32003KT 7SM +RA CLR 18/11 A3005 RMK AO2
KAGC 
32nm SW 
310553Z AUTO 33003KT 10SM CLR 16/12 A3007 RMK AO2 SLP180 T01610117 10222 20161 50005
KLBE 
33nm S 
310615Z AUTO 00000KT 10SM CLR 15/13 A3007 RMK AO2
TAF
KAGC 
32nm SW 
310520Z 3106/0106 35006KT P6SM BKN250 FM311300 VRB05KT P6SM SKC
KLBE 
33nm S 
310520Z 3106/0106 35006KT P6SM BKN250 FM311300 VRB05KT P6SM SKC
KFKL 
36nm N 
310520Z 3106/0106 33005KT P6SM SCT250 TEMPO 3109/3112 1SM BR BKN002 FM311300 27003KT P6SM SKC
KDUJ 
37nm NE 
310520Z 3106/0106 29005KT P6SM SCT250 TEMPO 3109/3112 2SM BR BKN003 FM311300 27003KT P6SM SKC
KPIT 
37nm SW 
310520Z 3106/0112 35006KT P6SM BKN250 FM311300 VRB05KT P6SM SKC
KBVI 
38nm W 
310520Z 3106/0106 35006KT P6SM BKN250 FM311300 VRB05KT P6SM SKC
NOTAMs
Click for the latest NOTAMs
NOTAMs are issued by the DoD/FAA and will open in a separate window not controlled by AirNav.

 

 
 

Would you like to see your business listed on this page?

 If your business provides an interesting product or service to pilots, flight crews, aircraft, or users of the Armstrong County Memorial Hospital Heliport, you should consider listing it here.  To start the listing process, click on the button below
 
Add a business
 

Other Pages about Armstrong County Memorial Hospital Heliport

Update a link
 
Copyright © AirNav, LLC. All rights reserved. Privacy Policy  Contact